Terminal Aerodrome Forecast
Issued by NWS Charleston, WV

Home | Current Version | Previous Version | Text Only | Print | Product List | Glossary On
Versions: 1 2 3 4 5 6 7 8 9 10 11 12 13 14 15 16 17 18 19 20 21 22
000
FTUS41 KRLX 241700
TAFPKB
TAF
KPKB 241740Z 2418/2518 10007KT P6SM SCT025 BKN040
     FM250300 00000KT P6SM FEW250
     FM250400 00000KT 6SM BR FEW250
     FM250700 00000KT 1/2SM FG FEW250
     FM251300 00000KT 5SM BR FEW045
     FM251400 00000KT P6SM FEW045
      AMD NOT SKED=

USA.gov is the U.S. government's official web portal to all federal, state and local government web resources and services.